VHEMD YLMQ-YSTW
Flight info
| Callsign | VHEMD |
|---|---|
| Flight time | N/A |
| Altitude | 4500 |
| Route | YCNK BAXT YSGT YSCO MUI WEK GST DUA |
| Aircraft | P28A/L-SDF/C |
Departure
| Time | 2026-05-01 09:10 |
|---|---|
| Airport | Lake Macquarie Airport (YLMQ) |
Arrival
| Time | N/A |
|---|---|
| Airport | Tamworth Airport (YSTW) |
| Time | Latitude | Longitude | Altitude | Speed | Heading |
|---|---|---|---|---|---|
| 2026-05-01 08:50 | -33.06664 | 151.64984 | 10 ft | 0 kts | 37° |
| 2026-05-01 09:05 | -33.06647 | 151.64980 | 10 ft | 6 kts | 336° |
| 2026-05-01 09:06 | -33.06613 | 151.64946 | 10 ft | 6 kts | 310° |
| 2026-05-01 09:06 | -33.06601 | 151.64922 | 10 ft | 1 kts | 290° |
| 2026-05-01 09:06 | -33.06593 | 151.64887 | 10 ft | 7 kts | 277° |
| 2026-05-01 09:06 | -33.06597 | 151.64816 | 10 ft | 9 kts | 265° |
| 2026-05-01 09:07 | -33.06605 | 151.64734 | 10 ft | 10 kts | 261° |
| 2026-05-01 09:07 | -33.06617 | 151.64644 | 10 ft | 10 kts | 261° |
| 2026-05-01 09:07 | -33.06627 | 151.64558 | 10 ft | 10 kts | 261° |
| 2026-05-01 09:07 | -33.06636 | 151.64479 | 10 ft | 9 kts | 263° |
| 2026-05-01 09:08 | -33.06645 | 151.64407 | 10 ft | 8 kts | 262° |
| 2026-05-01 09:08 | -33.06654 | 151.64329 | 10 ft | 10 kts | 262° |
| 2026-05-01 09:08 | -33.06665 | 151.64243 | 10 ft | 10 kts | 260° |
| 2026-05-01 09:08 | -33.06665 | 151.64197 | 10 ft | 2 kts | 315° |
| 2026-05-01 09:09 | -33.06640 | 151.64220 | 10 ft | 7 kts | 76° |
| 2026-05-01 09:09 | -33.06616 | 151.64420 | 10 ft | 52 kts | 81° |
| 2026-05-01 09:09 | -33.06559 | 151.64951 | 153 ft | 71 kts | 77° |
| 2026-05-01 09:09 | -33.06462 | 151.65515 | 439 ft | 69 kts | 57° |
| 2026-05-01 09:10 | -33.06045 | 151.65801 | 663 ft | 80 kts | 7° |
| 2026-05-01 09:10 | -33.05484 | 151.65521 | 869 ft | 99 kts | 322° |
| 2026-05-01 09:10 | -33.04990 | 151.64882 | 1050 ft | 109 kts | 321° |
| 2026-05-01 09:10 | -33.04386 | 151.64298 | 1180 ft | 115 kts | 332° |
| 2026-05-01 09:11 | -33.03673 | 151.63808 | 1307 ft | 119 kts | 339° |
| 2026-05-01 09:11 | -33.02918 | 151.63386 | 1429 ft | 122 kts | 343° |
| 2026-05-01 09:11 | -33.02109 | 151.63045 | 1552 ft | 122 kts | 349° |
| 2026-05-01 09:11 | -33.01286 | 151.62755 | 1667 ft | 122 kts | 353° |
| 2026-05-01 09:12 | -33.00472 | 151.62727 | 1789 ft | 115 kts | 8° |
| 2026-05-01 09:12 | -32.99679 | 151.62773 | 1916 ft | 112 kts | 10° |
| 2026-05-01 09:12 | -32.98888 | 151.62624 | 2041 ft | 115 kts | 352° |
| 2026-05-01 09:12 | -32.98120 | 151.62381 | 2168 ft | 114 kts | 353° |
| 2026-05-01 09:13 | -32.97352 | 151.62138 | 2291 ft | 113 kts | 352° |
| 2026-05-01 09:13 | -32.96596 | 151.61899 | 2407 ft | 113 kts | 352° |
| 2026-05-01 09:13 | -32.95820 | 151.61791 | 2475 ft | 111 kts | 11° |
| 2026-05-01 09:13 | -32.95032 | 151.61871 | 2493 ft | 116 kts | 12° |
| 2026-05-01 09:14 | -32.94224 | 151.61963 | 2488 ft | 116 kts | 11° |
| 2026-05-01 09:14 | -32.93418 | 151.62051 | 2487 ft | 116 kts | 12° |
| 2026-05-01 09:14 | -32.92599 | 151.61920 | 2485 ft | 121 kts | 351° |
| 2026-05-01 09:14 | -32.91774 | 151.61652 | 2484 ft | 121 kts | 351° |
| 2026-05-01 09:15 | -32.90967 | 151.61368 | 2484 ft | 122 kts | 346° |
| 2026-05-01 09:15 | -32.90196 | 151.60902 | 2484 ft | 124 kts | 338° |
| 2026-05-01 09:15 | -32.89426 | 151.60406 | 2485 ft | 124 kts | 339° |
| 2026-05-01 09:15 | -32.88732 | 151.59770 | 2480 ft | 130 kts | 316° |
| 2026-05-01 09:16 | -32.88184 | 151.58919 | 2485 ft | 131 kts | 313° |
| 2026-05-01 09:16 | -32.87631 | 151.58041 | 2484 ft | 131 kts | 314° |
| 2026-05-01 09:16 | -32.87083 | 151.57175 | 2483 ft | 131 kts | 313° |
| 2026-05-01 09:17 | -32.85825 | 151.55653 | 2474 ft | 127 kts | 330° |
| 2026-05-01 09:17 | -32.85120 | 151.55032 | 2475 ft | 126 kts | 330° |
| 2026-05-01 09:17 | -32.83704 | 151.53787 | 2482 ft | 126 kts | 330° |
| 2026-05-01 09:18 | -32.83028 | 151.53101 | 2477 ft | 130 kts | 313° |
| 2026-05-01 09:18 | -32.82371 | 151.51041 | 2491 ft | 134 kts | 293° |
| 2026-05-01 09:19 | -32.81775 | 151.48908 | 2496 ft | 135 kts | 293° |
| 2026-05-01 09:19 | -32.81558 | 151.47815 | 2500 ft | 138 kts | 278° |
| 2026-05-01 09:19 | -32.81499 | 151.46670 | 2496 ft | 139 kts | 270° |
| 2026-05-01 09:20 | -32.81911 | 151.44420 | 2505 ft | 140 kts | 257° |
| 2026-05-01 09:20 | -32.82365 | 151.42151 | 2499 ft | 140 kts | 258° |
| 2026-05-01 09:21 | -32.82780 | 151.39882 | 2493 ft | 140 kts | 261° |
| 2026-05-01 09:21 | -32.82872 | 151.38728 | 2489 ft | 140 kts | 268° |
| 2026-05-01 09:21 | -32.82922 | 151.36440 | 2485 ft | 137 kts | 289° |
| 2026-05-01 09:22 | -32.81564 | 151.35336 | 2489 ft | 119 kts | 359° |
| 2026-05-01 09:22 | -32.79916 | 151.35063 | 2487 ft | 119 kts | 359° |
| 2026-05-01 09:23 | -32.79094 | 151.34921 | 2485 ft | 119 kts | 359° |
| 2026-05-01 09:23 | -32.77451 | 151.34637 | 2488 ft | 118 kts | 359° |
| 2026-05-01 09:24 | -32.75805 | 151.34351 | 2488 ft | 119 kts | 359° |
| 2026-05-01 09:24 | -32.74981 | 151.34209 | 2484 ft | 119 kts | 0° |
| 2026-05-01 09:24 | -32.73333 | 151.34158 | 2481 ft | 118 kts | 6° |
| 2026-05-01 09:25 | -32.71677 | 151.34129 | 2482 ft | 118 kts | 6° |
| 2026-05-01 09:25 | -32.70043 | 151.34109 | 2477 ft | 115 kts | 11° |
| 2026-05-01 09:26 | -32.69284 | 151.34366 | 2481 ft | 112 kts | 24° |
| 2026-05-01 09:26 | -32.67808 | 151.34979 | 2480 ft | 112 kts | 23° |
| 2026-05-01 09:26 | -32.67007 | 151.35030 | 2479 ft | 118 kts | 358° |
| 2026-05-01 09:27 | -32.65702 | 151.33722 | 2473 ft | 133 kts | 298° |
| 2026-05-01 09:27 | -32.65583 | 151.32619 | 2479 ft | 136 kts | 274° |
| 2026-05-01 09:27 | -32.65576 | 151.31490 | 2484 ft | 137 kts | 273° |
| 2026-05-01 09:28 | -32.65568 | 151.30351 | 2479 ft | 138 kts | 273° |
| 2026-05-01 09:28 | -32.65524 | 151.29216 | 2477 ft | 136 kts | 285° |
| 2026-05-01 09:28 | -32.65264 | 151.28133 | 2478 ft | 135 kts | 291° |
| 2026-05-01 09:28 | -32.64996 | 151.27074 | 2480 ft | 135 kts | 291° |
| 2026-05-01 09:29 | -32.64458 | 151.24940 | 2479 ft | 135 kts | 291° |
| 2026-05-01 09:29 | -32.64150 | 151.23888 | 2475 ft | 132 kts | 306° |
| 2026-05-01 09:30 | -32.62712 | 151.22774 | 2478 ft | 124 kts | 339° |
| 2026-05-01 09:30 | -32.62134 | 151.21997 | 2477 ft | 133 kts | 299° |
| 2026-05-01 09:30 | -32.61427 | 151.19978 | 2474 ft | 129 kts | 321° |
| 2026-05-01 09:31 | -32.60704 | 151.19376 | 2478 ft | 125 kts | 334° |
| 2026-05-01 09:31 | -32.59963 | 151.18817 | 2476 ft | 126 kts | 335° |
| 2026-05-01 09:31 | -32.58490 | 151.17705 | 2478 ft | 126 kts | 334° |
| 2026-05-01 09:32 | -32.57745 | 151.17142 | 2479 ft | 126 kts | 335° |
| 2026-05-01 09:32 | -32.56230 | 151.16138 | 2482 ft | 123 kts | 342° |
| 2026-05-01 09:32 | -32.55445 | 151.15720 | 2485 ft | 122 kts | 343° |
| 2026-05-01 09:33 | -32.54659 | 151.15303 | 2491 ft | 123 kts | 343° |
| 2026-05-01 09:33 | -32.53911 | 151.14775 | 2493 ft | 126 kts | 333° |
| 2026-05-01 09:33 | -32.52463 | 151.13600 | 2484 ft | 126 kts | 333° |
| 2026-05-01 09:34 | -32.51740 | 151.13013 | 2482 ft | 126 kts | 332° |
| 2026-05-01 09:34 | -32.51012 | 151.12421 | 2482 ft | 126 kts | 332° |
| 2026-05-01 09:34 | -32.49558 | 151.11241 | 2483 ft | 126 kts | 332° |
| 2026-05-01 09:35 | -32.48863 | 151.10606 | 2480 ft | 128 kts | 322° |
| 2026-05-01 09:35 | -32.47580 | 151.09120 | 2477 ft | 129 kts | 322° |
| 2026-05-01 09:35 | -32.46936 | 151.08374 | 2475 ft | 128 kts | 322° |
| 2026-05-01 09:36 | -32.46299 | 151.07634 | 2473 ft | 128 kts | 322° |
| 2026-05-01 09:36 | -32.45664 | 151.06900 | 2473 ft | 128 kts | 322° |
| 2026-05-01 09:36 | -32.45014 | 151.06190 | 2471 ft | 125 kts | 333° |
| 2026-05-01 09:36 | -32.44233 | 151.05760 | 2480 ft | 122 kts | 343° |
| 2026-05-01 09:37 | -32.43449 | 151.05370 | 2484 ft | 123 kts | 344° |
| 2026-05-01 09:37 | -32.41949 | 151.04367 | 2478 ft | 131 kts | 310° |
| 2026-05-01 09:37 | -32.41608 | 151.03361 | 2482 ft | 134 kts | 291° |
| 2026-05-01 09:38 | -32.41065 | 151.01236 | 2484 ft | 134 kts | 291° |
| 2026-05-01 09:38 | -32.40792 | 151.00171 | 2483 ft | 134 kts | 291° |
| 2026-05-01 09:38 | -32.40484 | 150.99123 | 2477 ft | 132 kts | 305° |
| 2026-05-01 09:39 | -32.39344 | 150.97464 | 2484 ft | 129 kts | 316° |
| 2026-05-01 09:39 | -32.38752 | 150.96677 | 2479 ft | 127 kts | 326° |
| 2026-05-01 09:39 | -32.37959 | 150.96356 | 2484 ft | 118 kts | 1° |
| 2026-05-01 09:40 | -32.37139 | 150.96286 | 2483 ft | 118 kts | 2° |
| 2026-05-01 09:40 | -32.35482 | 150.96158 | 2475 ft | 119 kts | 2° |
| 2026-05-01 09:40 | -32.34652 | 150.96092 | 2472 ft | 119 kts | 2° |
| 2026-05-01 09:41 | -32.33857 | 150.95752 | 2468 ft | 125 kts | 333° |
| 2026-05-01 09:41 | -32.32400 | 150.94612 | 2463 ft | 125 kts | 332° |
| 2026-05-01 09:41 | -32.31678 | 150.94041 | 2462 ft | 125 kts | 332° |
| 2026-05-01 09:42 | -32.30957 | 150.93466 | 2464 ft | 125 kts | 330° |
| 2026-05-01 09:42 | -32.30267 | 150.92807 | 2469 ft | 126 kts | 326° |
| 2026-05-01 09:42 | -32.28914 | 150.91487 | 2470 ft | 126 kts | 327° |
| 2026-05-01 09:43 | -32.27554 | 150.90161 | 2463 ft | 127 kts | 327° |
| 2026-05-01 09:43 | -32.26861 | 150.89493 | 2463 ft | 125 kts | 330° |
| 2026-05-01 09:43 | -32.26076 | 150.89235 | 2465 ft | 116 kts | 5° |
| 2026-05-01 09:44 | -32.24444 | 150.89299 | 2467 ft | 117 kts | 8° |
| 2026-05-01 09:44 | -32.23627 | 150.89334 | 2466 ft | 117 kts | 8° |
| 2026-05-01 09:44 | -32.22799 | 150.89372 | 2465 ft | 118 kts | 7° |
| 2026-05-01 09:45 | -32.21974 | 150.89409 | 2463 ft | 118 kts | 8° |
| 2026-05-01 09:45 | -32.20327 | 150.89424 | 2461 ft | 119 kts | 357° |
| 2026-05-01 09:45 | -32.19504 | 150.89264 | 2463 ft | 119 kts | 357° |
| 2026-05-01 09:46 | -32.18687 | 150.89102 | 2459 ft | 119 kts | 356° |
| 2026-05-01 09:46 | -32.17862 | 150.88940 | 2459 ft | 119 kts | 356° |
| 2026-05-01 09:46 | -32.17048 | 150.88780 | 2460 ft | 119 kts | 356° |
| 2026-05-01 09:46 | -32.16219 | 150.88615 | 2462 ft | 119 kts | 356° |
| 2026-05-01 09:47 | -32.15391 | 150.88454 | 2463 ft | 120 kts | 356° |
| 2026-05-01 09:47 | -32.14573 | 150.88292 | 2465 ft | 120 kts | 356° |
| 2026-05-01 09:47 | -32.13729 | 150.88148 | 2462 ft | 119 kts | 360° |
| 2026-05-01 09:47 | -32.12905 | 150.88046 | 2462 ft | 119 kts | 359° |
| 2026-05-01 09:48 | -32.12072 | 150.87944 | 2464 ft | 119 kts | 359° |
| 2026-05-01 09:48 | -32.11221 | 150.87840 | 2457 ft | 119 kts | 359° |
| 2026-05-01 09:48 | -32.10388 | 150.87738 | 2460 ft | 118 kts | 359° |
| 2026-05-01 09:48 | -32.09552 | 150.87636 | 2461 ft | 119 kts | 359° |
| 2026-05-01 09:49 | -32.08726 | 150.87534 | 2461 ft | 119 kts | 359° |
| 2026-05-01 09:49 | -32.07903 | 150.87433 | 2460 ft | 119 kts | 359° |
| 2026-05-01 09:49 | -32.07084 | 150.87332 | 2462 ft | 119 kts | 360° |
| 2026-05-01 09:49 | -32.06287 | 150.87024 | 2453 ft | 126 kts | 329° |
| 2026-05-01 09:50 | -32.05677 | 150.86244 | 2458 ft | 129 kts | 315° |
| 2026-05-01 09:50 | -32.05109 | 150.85426 | 2458 ft | 129 kts | 314° |
| 2026-05-01 09:50 | -32.04535 | 150.84592 | 2458 ft | 130 kts | 314° |
| 2026-05-01 09:50 | -32.03910 | 150.83843 | 2453 ft | 125 kts | 336° |
| 2026-05-01 09:51 | -32.03092 | 150.83745 | 2455 ft | 116 kts | 20° |
| 2026-05-01 09:51 | -32.02356 | 150.84123 | 2459 ft | 114 kts | 28° |
| 2026-05-01 09:51 | -32.01624 | 150.84528 | 2457 ft | 114 kts | 29° |
| 2026-05-01 09:51 | -32.00888 | 150.84933 | 2457 ft | 114 kts | 28° |
| 2026-05-01 09:52 | -32.00166 | 150.85335 | 2457 ft | 114 kts | 29° |
| 2026-05-01 09:52 | -31.99434 | 150.85738 | 2460 ft | 114 kts | 29° |
| 2026-05-01 09:52 | -31.98709 | 150.86140 | 2463 ft | 114 kts | 29° |
| 2026-05-01 09:52 | -31.97992 | 150.86533 | 2462 ft | 114 kts | 28° |
| 2026-05-01 09:53 | -31.97208 | 150.86740 | 2467 ft | 116 kts | 15° |
| 2026-05-01 09:53 | -31.96404 | 150.86899 | 2469 ft | 116 kts | 14° |
| 2026-05-01 09:53 | -31.95607 | 150.87058 | 2473 ft | 116 kts | 13° |
| 2026-05-01 09:53 | -31.94806 | 150.87210 | 2479 ft | 115 kts | 13° |
| 2026-05-01 09:54 | -31.94017 | 150.87366 | 2483 ft | 115 kts | 15° |
| 2026-05-01 09:54 | -31.93215 | 150.87521 | 2478 ft | 115 kts | 14° |
| 2026-05-01 09:54 | -31.92421 | 150.87677 | 2479 ft | 116 kts | 14° |
| 2026-05-01 09:54 | -31.91624 | 150.87831 | 2474 ft | 116 kts | 14° |
| 2026-05-01 09:55 | -31.90824 | 150.87985 | 2471 ft | 115 kts | 15° |
| 2026-05-01 09:55 | -31.90037 | 150.88138 | 2503 ft | 112 kts | 14° |
| 2026-05-01 09:55 | -31.89282 | 150.88283 | 2582 ft | 106 kts | 14° |
| 2026-05-01 09:55 | -31.88556 | 150.88406 | 2673 ft | 102 kts | 14° |
| 2026-05-01 09:56 | -31.87857 | 150.88525 | 2758 ft | 100 kts | 14° |
| 2026-05-01 09:56 | -31.87174 | 150.88640 | 2854 ft | 100 kts | 14° |
| 2026-05-01 09:56 | -31.86481 | 150.88760 | 2962 ft | 100 kts | 14° |
| 2026-05-01 09:56 | -31.85793 | 150.88878 | 3068 ft | 99 kts | 14° |
| 2026-05-01 09:57 | -31.85109 | 150.88997 | 3184 ft | 99 kts | 14° |
| 2026-05-01 09:57 | -31.84422 | 150.89114 | 3305 ft | 98 kts | 14° |
| 2026-05-01 09:57 | -31.83748 | 150.89232 | 3420 ft | 98 kts | 14° |
| 2026-05-01 09:57 | -31.83071 | 150.89349 | 3529 ft | 98 kts | 14° |
| 2026-05-01 09:58 | -31.82393 | 150.89465 | 3648 ft | 97 kts | 14° |
| 2026-05-01 09:58 | -31.81723 | 150.89581 | 3775 ft | 97 kts | 14° |
| 2026-05-01 09:58 | -31.81054 | 150.89697 | 3911 ft | 96 kts | 14° |
| 2026-05-01 09:58 | -31.80387 | 150.89813 | 4043 ft | 96 kts | 14° |
| 2026-05-01 09:59 | -31.79729 | 150.89912 | 4172 ft | 97 kts | 6° |
| 2026-05-01 09:59 | -31.79092 | 150.89552 | 4303 ft | 109 kts | 320° |
| 2026-05-01 09:59 | -31.78707 | 150.88768 | 4428 ft | 113 kts | 303° |
| 2026-05-01 09:59 | -31.78362 | 150.87924 | 4518 ft | 116 kts | 302° |
| 2026-05-01 10:00 | -31.78007 | 150.87038 | 4554 ft | 123 kts | 302° |
| 2026-05-01 10:00 | -31.77636 | 150.86107 | 4550 ft | 130 kts | 301° |
| 2026-05-01 10:00 | -31.77254 | 150.85126 | 4553 ft | 134 kts | 300° |
| 2026-05-01 10:00 | -31.76862 | 150.84113 | 4552 ft | 135 kts | 300° |
| 2026-05-01 10:01 | -31.76414 | 150.83173 | 4547 ft | 129 kts | 316° |
| 2026-05-01 10:01 | -31.75819 | 150.82381 | 4549 ft | 127 kts | 318° |
| 2026-05-01 10:01 | -31.75235 | 150.81610 | 4556 ft | 127 kts | 319° |
| 2026-05-01 10:01 | -31.74645 | 150.80832 | 4549 ft | 126 kts | 318° |
| 2026-05-01 10:02 | -31.74060 | 150.80058 | 4547 ft | 127 kts | 318° |
| 2026-05-01 10:02 | -31.73472 | 150.79279 | 4546 ft | 126 kts | 318° |
| 2026-05-01 10:02 | -31.72781 | 150.78709 | 4560 ft | 118 kts | 345° |
| 2026-05-01 10:02 | -31.72009 | 150.78349 | 4559 ft | 120 kts | 345° |
| 2026-05-01 10:03 | -31.71214 | 150.77985 | 4563 ft | 122 kts | 344° |
| 2026-05-01 10:03 | -31.70418 | 150.77615 | 4555 ft | 123 kts | 345° |
| 2026-05-01 10:03 | -31.69619 | 150.77245 | 4557 ft | 123 kts | 345° |
| 2026-05-01 10:03 | -31.68812 | 150.76872 | 4555 ft | 124 kts | 345° |
| 2026-05-01 10:04 | -31.68026 | 150.76450 | 4552 ft | 127 kts | 333° |
| 2026-05-01 10:04 | -31.67310 | 150.75803 | 4553 ft | 129 kts | 329° |
| 2026-05-01 10:04 | -31.66611 | 150.75153 | 4550 ft | 129 kts | 328° |
| 2026-05-01 10:04 | -31.65908 | 150.74499 | 4547 ft | 129 kts | 328° |
| 2026-05-01 10:05 | -31.65197 | 150.73839 | 4547 ft | 129 kts | 328° |
| 2026-05-01 10:05 | -31.64491 | 150.73183 | 4546 ft | 129 kts | 328° |
| 2026-05-01 10:05 | -31.63782 | 150.72530 | 4545 ft | 128 kts | 331° |
| 2026-05-01 10:05 | -31.62982 | 150.72122 | 4547 ft | 123 kts | 347° |
| 2026-05-01 10:06 | -31.62177 | 150.71790 | 4544 ft | 123 kts | 347° |
| 2026-05-01 10:06 | -31.61360 | 150.71454 | 4544 ft | 123 kts | 347° |
| 2026-05-01 10:06 | -31.60553 | 150.71121 | 4544 ft | 123 kts | 348° |
| 2026-05-01 10:06 | -31.59733 | 150.70784 | 4544 ft | 123 kts | 347° |
| 2026-05-01 10:07 | -31.58919 | 150.70448 | 4542 ft | 124 kts | 347° |
| 2026-05-01 10:07 | -31.58104 | 150.70180 | 4542 ft | 121 kts | 355° |
| 2026-05-01 10:07 | -31.57265 | 150.69980 | 4541 ft | 121 kts | 355° |
| 2026-05-01 10:07 | -31.56439 | 150.69783 | 4539 ft | 122 kts | 355° |
| 2026-05-01 10:08 | -31.54767 | 150.69363 | 4536 ft | 122 kts | 354° |
| 2026-05-01 10:08 | -31.53933 | 150.69148 | 4535 ft | 122 kts | 354° |
| 2026-05-01 10:08 | -31.53107 | 150.68936 | 4534 ft | 122 kts | 355° |
| 2026-05-01 10:09 | -31.52268 | 150.68724 | 4535 ft | 122 kts | 355° |
| 2026-05-01 10:09 | -31.51440 | 150.68512 | 4535 ft | 122 kts | 353° |
| 2026-05-01 10:09 | -31.50617 | 150.68260 | 4534 ft | 122 kts | 353° |
| 2026-05-01 10:09 | -31.49793 | 150.68008 | 4533 ft | 122 kts | 352° |
| 2026-05-01 10:10 | -31.48965 | 150.67757 | 4534 ft | 122 kts | 352° |
| 2026-05-01 10:10 | -31.48140 | 150.67505 | 4538 ft | 121 kts | 352° |
| 2026-05-01 10:10 | -31.46494 | 150.67006 | 4545 ft | 122 kts | 353° |
| 2026-05-01 10:11 | -31.45675 | 150.66759 | 4547 ft | 122 kts | 353° |
| 2026-05-01 10:11 | -31.44853 | 150.66510 | 4546 ft | 122 kts | 352° |
| 2026-05-01 10:11 | -31.44018 | 150.66257 | 4543 ft | 122 kts | 353° |
| 2026-05-01 10:11 | -31.43188 | 150.66005 | 4543 ft | 122 kts | 353° |
| 2026-05-01 10:12 | -31.42356 | 150.65753 | 4541 ft | 122 kts | 353° |
| 2026-05-01 10:12 | -31.41531 | 150.65503 | 4541 ft | 122 kts | 352° |
| 2026-05-01 10:12 | -31.39866 | 150.64999 | 4542 ft | 122 kts | 352° |
| 2026-05-01 10:13 | -31.39045 | 150.64751 | 4545 ft | 122 kts | 352° |
| 2026-05-01 10:13 | -31.38216 | 150.64618 | 4543 ft | 117 kts | 12° |
| 2026-05-01 10:13 | -31.37419 | 150.64761 | 4545 ft | 116 kts | 15° |
| 2026-05-01 10:14 | -31.35813 | 150.65071 | 4538 ft | 117 kts | 12° |
| 2026-05-01 10:14 | -31.34987 | 150.65115 | 4532 ft | 118 kts | 8° |
| 2026-05-01 10:14 | -31.34145 | 150.65152 | 4461 ft | 120 kts | 9° |
| 2026-05-01 10:14 | -31.33318 | 150.65190 | 4340 ft | 117 kts | 10° |
| 2026-05-01 10:15 | -31.32503 | 150.65225 | 4216 ft | 116 kts | 10° |
| 2026-05-01 10:15 | -31.31703 | 150.65274 | 4096 ft | 114 kts | 16° |
| 2026-05-01 10:15 | -31.31071 | 150.65752 | 3973 ft | 106 kts | 51° |
| 2026-05-01 10:15 | -31.30587 | 150.66400 | 3847 ft | 106 kts | 52° |
| 2026-05-01 10:16 | -31.30113 | 150.67062 | 3714 ft | 106 kts | 53° |
| 2026-05-01 10:16 | -31.29645 | 150.67723 | 3586 ft | 105 kts | 54° |
| 2026-05-01 10:16 | -31.28380 | 150.68527 | 3316 ft | 115 kts | 13° |
| 2026-05-01 10:17 | -31.27577 | 150.68547 | 3190 ft | 115 kts | 11° |
| 2026-05-01 10:17 | -31.25979 | 150.68549 | 3026 ft | 110 kts | 9° |
| 2026-05-01 10:17 | -31.25206 | 150.68504 | 3034 ft | 111 kts | 5° |
| 2026-05-01 10:18 | -31.23623 | 150.68327 | 3029 ft | 116 kts | 7° |
| 2026-05-01 10:18 | -31.22811 | 150.68260 | 3027 ft | 117 kts | 6° |
| 2026-05-01 10:18 | -31.21999 | 150.68204 | 3017 ft | 113 kts | 13° |
| 2026-05-01 10:19 | -31.21337 | 150.68587 | 3009 ft | 104 kts | 46° |
| 2026-05-01 10:19 | -31.20796 | 150.69135 | 3014 ft | 101 kts | 47° |
| 2026-05-01 10:19 | -31.20211 | 150.69612 | 3038 ft | 104 kts | 38° |
| 2026-05-01 10:20 | -31.19167 | 150.70796 | 3031 ft | 105 kts | 49° |
| 2026-05-01 10:20 | -31.18626 | 150.71382 | 2949 ft | 108 kts | 46° |
| 2026-05-01 10:20 | -31.18052 | 150.71974 | 2869 ft | 108 kts | 46° |
| 2026-05-01 10:20 | -31.17482 | 150.72545 | 2818 ft | 107 kts | 47° |
| 2026-05-01 10:21 | -31.16916 | 150.73105 | 2752 ft | 106 kts | 45° |
| 2026-05-01 10:21 | -31.15789 | 150.74208 | 2606 ft | 105 kts | 45° |
| 2026-05-01 10:21 | -31.15230 | 150.74756 | 2524 ft | 106 kts | 45° |
| 2026-05-01 10:22 | -31.14089 | 150.75743 | 2508 ft | 93 kts | 37° |
| 2026-05-01 10:22 | -31.13053 | 150.76471 | 2492 ft | 84 kts | 38° |
| 2026-05-01 10:23 | -31.12584 | 150.76869 | 2496 ft | 80 kts | 52° |
| 2026-05-01 10:23 | -31.12098 | 150.77406 | 2507 ft | 81 kts | 46° |